Alton, Kansas
Current Conditions -  °F | °C
As of 4:53 PM on Tuesday 27 Jan 2015 (Local Time) from KRSL Reporting Station
Clear Clear  
Wind Chill: 79°   Ceiling: Unl
Heat Index: 79°   Visibility: 10mi
Dew Point: 27°   Wind: 12mph
Humidity: 15%   Direction: 230°SW
Pressure: 29.91"   Gusts: NA
Location:  39.47°N, 98.95°W
Report Text: KRSL 272253Z AUTO 23010KT 10SM CLR 26/M03 A2991 RMK AO2 SLP127 T02611028
Loading
Personal Weather Stations






























Interactive Weather Map New forecast layout! Learn more

10-Day Weather Forecast

Advertisements
Track Severe Weather on mobile